Terminal Aerodrome Forecast
Issued by NWS

Home | Current Version | Previous Version | Text Only | Print | Product List | Glossary On
Versions: 1 2 3 4 5 6 7 8 9 10 11 12
209
FTUS45 KVEF 131120
TAFEED
TAF
KEED 131120Z 1312/1412 30005KT P6SM SKC
     FM131600 01009KT P6SM FEW250
     FM140300 34007KT P6SM FEW250=

USA.gov is the U.S. government's official web portal to all federal, state and local government web resources and services.